sensor_id;sensor_type;location;lat;lon;timestamp;pressure;altitude;pressure_sealevel;temperature;humidity
50123;BME280;36021;48.670;6.184;2023-02-26T00:01:29;98686.50;;;2.86;100.00
50123;BME280;36021;48.670;6.184;2023-02-26T00:03:56;98683.97;;;2.80;100.00
50123;BME280;36021;48.670;6.184;2023-02-26T00:06:23;98684.03;;;2.85;100.00
50123;BME280;36021;48.670;6.184;2023-02-26T00:08:49;98682.25;;;2.95;100.00
50123;BME280;36021;48.670;6.184;2023-02-26T00:11:14;98693.09;;;2.90;100.00
50123;BME280;36021;48.670;6.184;2023-02-26T00:13:41;98688.16;;;2.87;100.00
50123;BME280;36021;48.670;6.184;2023-02-26T00:16:12;98694.72;;;2.91;100.00
50123;BME280;36021;48.670;6.184;2023-02-26T00:18:41;98698.72;;;2.84;100.00
50123;BME280;36021;48.670;6.184;2023-02-26T00:21:07;98697.53;;;2.75;100.00
50123;BME280;36021;48.670;6.184;2023-02-26T00:23:33;98696.13;;;2.72;100.00
50123;BME280;36021;48.670;6.184;2023-02-26T00:25:59;98700.91;;;2.65;100.00
50123;BME280;36021;48.670;6.184;2023-02-26T00:28:24;98705.88;;;2.68;100.00
50123;BME280;36021;48.670;6.184;2023-02-26T00:30:50;98704.22;;;2.67;100.00
50123;BME280;36021;48.670;6.184;2023-02-26T00:33:16;98698.78;;;2.67;100.00
50123;BME280;36021;48.670;6.184;2023-02-26T00:35:42;98700.50;;;2.73;100.00
50123;BME280;36021;48.670;6.184;2023-02-26T00:38:11;98698.78;;;2.67;100.00
50123;BME280;36021;48.670;6.184;2023-02-26T00:40:41;98702.16;;;2.74;100.00
50123;BME280;36021;48.670;6.184;2023-02-26T00:43:17;98702.50;;;2.61;100.00
50123;BME280;36021;48.670;6.184;2023-02-26T00:48:28;98699.81;;;2.44;100.00
50123;BME280;36021;48.670;6.184;2023-02-26T00:51:07;98704.75;;;2.47;100.00
50123;BME280;36021;48.670;6.184;2023-02-26T00:53:35;98702.47;;;2.39;100.00
50123;BME280;36021;48.670;6.184;2023-02-26T00:56:06;98700.97;;;2.48;100.00
50123;BME280;36021;48.670;6.184;2023-02-26T00:58:32;98701.16;;;2.42;100.00
50123;BME280;36021;48.670;6.184;2023-02-26T01:00:58;98697.28;;;2.38;100.00
50123;BME280;36021;48.670;6.184;2023-02-26T01:03:25;98703.22;;;2.35;100.00
50123;BME280;36021;48.670;6.184;2023-02-26T01:05:51;98695.72;;;2.42;100.00
50123;BME280;36021;48.670;6.184;2023-02-26T01:08:18;98698.34;;;2.37;100.00
50123;BME280;36021;48.670;6.184;2023-02-26T01:10:48;98696.53;;;2.42;100.00
50123;BME280;36021;48.670;6.184;2023-02-26T01:13:14;98697.66;;;2.46;100.00
50123;BME280;36021;48.670;6.184;2023-02-26T01:15:40;98698.84;;;2.34;100.00
50123;BME280;36021;48.670;6.184;2023-02-26T01:18:15;98688.69;;;2.46;100.00
50123;BME280;36021;48.670;6.184;2023-02-26T01:20:44;98689.78;;;2.45;100.00
50123;BME280;36021;48.670;6.184;2023-02-26T01:23:13;98697.03;;;2.39;100.00
50123;BME280;36021;48.670;6.184;2023-02-26T01:25:40;98690.44;;;2.52;100.00
50123;BME280;36021;48.670;6.184;2023-02-26T01:28:08;98694.72;;;2.48;100.00
50123;BME280;36021;48.670;6.184;2023-02-26T01:30:34;98697.53;;;2.36;100.00
50123;BME280;36021;48.670;6.184;2023-02-26T01:36:02;98700.34;;;2.25;100.00
50123;BME280;36021;48.670;6.184;2023-02-26T01:38:41;98700.19;;;2.15;100.00
50123;BME280;36021;48.670;6.184;2023-02-26T01:41:15;98698.72;;;2.07;100.00
50123;BME280;36021;48.670;6.184;2023-02-26T01:46:52;98706.31;;;2.05;100.00
50123;BME280;36021;48.670;6.184;2023-02-26T01:49:15;98703.31;;;2.06;100.00
50123;BME280;36021;48.670;6.184;2023-02-26T01:54:09;98702.03;;;1.92;100.00
50123;BME280;36021;48.670;6.184;2023-02-26T01:56:36;98713.38;;;1.89;100.00
50123;BME280;36021;48.670;6.184;2023-02-26T01:59:03;98709.25;;;1.87;100.00
50123;BME280;36021;48.670;6.184;2023-02-26T02:01:32;98714.63;;;1.82;100.00
50123;BME280;36021;48.670;6.184;2023-02-26T02:03:59;98717.72;;;1.90;100.00
50123;BME280;36021;48.670;6.184;2023-02-26T02:06:25;98714.69;;;1.87;100.00
50123;BME280;36021;48.670;6.184;2023-02-26T02:08:52;98721.94;;;1.81;100.00
50123;BME280;36021;48.670;6.184;2023-02-26T02:11:17;98720.44;;;1.90;100.00
50123;BME280;36021;48.670;6.184;2023-02-26T02:13:53;98714.44;;;1.88;100.00
50123;BME280;36021;48.670;6.184;2023-02-26T02:22:16;98720.53;;;1.62;100.00
50123;BME280;36021;48.670;6.184;2023-02-26T02:27:03;98728.91;;;1.61;100.00
50123;BME280;36021;48.670;6.184;2023-02-26T02:35:11;98741.03;;;1.70;100.00
50123;BME280;36021;48.670;6.184;2023-02-26T02:40:18;98735.56;;;1.53;100.00
50123;BME280;36021;48.670;6.184;2023-02-26T02:42:46;98733.91;;;1.52;100.00
50123;BME280;36021;48.670;6.184;2023-02-26T02:47:54;98738.16;;;1.48;100.00
50123;BME280;36021;48.670;6.184;2023-02-26T02:50:29;98739.97;;;1.42;100.00
50123;BME280;36021;48.670;6.184;2023-02-26T02:53:01;98737.97;;;1.38;100.00
50123;BME280;36021;48.670;6.184;2023-02-26T02:55:33;98737.41;;;1.36;100.00
50123;BME280;36021;48.670;6.184;2023-02-26T02:58:02;98740.84;;;1.31;100.00
50123;BME280;36021;48.670;6.184;2023-02-26T03:00:30;98741.88;;;1.42;100.00
50123;BME280;36021;48.670;6.184;2023-02-26T03:03:03;98741.28;;;1.40;100.00
50123;BME280;36021;48.670;6.184;2023-02-26T03:05:31;98752.97;;;1.40;100.00
50123;BME280;36021;48.670;6.184;2023-02-26T03:08:07;98744.25;;;1.38;100.00
50123;BME280;36021;48.670;6.184;2023-02-26T03:10:35;98746.44;;;1.53;100.00
50123;BME280;36021;48.670;6.184;2023-02-26T03:13:01;98753.25;;;1.55;100.00
50123;BME280;36021;48.670;6.184;2023-02-26T03:18:03;98746.72;;;1.40;100.00
50123;BME280;36021;48.670;6.184;2023-02-26T03:20:33;98737.59;;;1.46;100.00
50123;BME280;36021;48.670;6.184;2023-02-26T03:23:08;98748.53;;;1.51;100.00
50123;BME280;36021;48.670;6.184;2023-02-26T03:28:25;98749.44;;;1.40;100.00
50123;BME280;36021;48.670;6.184;2023-02-26T03:31:01;98762.31;;;1.33;100.00
50123;BME280;36021;48.670;6.184;2023-02-26T03:33:53;98755.84;;;1.34;100.00
50123;BME280;36021;48.670;6.184;2023-02-26T03:36:23;98759.13;;;1.36;100.00
50123;BME280;36021;48.670;6.184;2023-02-26T03:39:03;98748.63;;;1.28;100.00
50123;BME280;36021;48.670;6.184;2023-02-26T03:44:11;98760.47;;;1.22;100.00
50123;BME280;36021;48.670;6.184;2023-02-26T03:46:42;98764.31;;;1.37;100.00
50123;BME280;36021;48.670;6.184;2023-02-26T03:49:14;98751.31;;;1.39;100.00
50123;BME280;36021;48.670;6.184;2023-02-26T03:51:43;98751.66;;;1.43;100.00
50123;BME280;36021;48.670;6.184;2023-02-26T03:54:43;98751.66;;;1.43;100.00
50123;BME280;36021;48.670;6.184;2023-02-26T03:57:51;98749.81;;;1.32;100.00
50123;BME280;36021;48.670;6.184;2023-02-26T04:00:40;98754.31;;;1.26;100.00
50123;BME280;36021;48.670;6.184;2023-02-26T04:03:10;98760.66;;;1.32;100.00
50123;BME280;36021;48.670;6.184;2023-02-26T04:05:41;98751.97;;;1.30;100.00
50123;BME280;36021;48.670;6.184;2023-02-26T04:08:09;98756.59;;;1.18;100.00
50123;BME280;36021;48.670;6.184;2023-02-26T04:10:37;98757.75;;;1.22;100.00
50123;BME280;36021;48.670;6.184;2023-02-26T04:13:04;98757.88;;;1.27;100.00
50123;BME280;36021;48.670;6.184;2023-02-26T04:15:30;98766.25;;;1.25;100.00
50123;BME280;36021;48.670;6.184;2023-02-26T04:17:55;98771.16;;;1.40;100.00
50123;BME280;36021;48.670;6.184;2023-02-26T04:20:21;98764.91;;;1.28;100.00
50123;BME280;36021;48.670;6.184;2023-02-26T04:22:46;98770.13;;;1.29;100.00
50123;BME280;36021;48.670;6.184;2023-02-26T04:25:12;98769.91;;;1.31;100.00
50123;BME280;36021;48.670;6.184;2023-02-26T04:27:38;98774.84;;;1.34;100.00
50123;BME280;36021;48.670;6.184;2023-02-26T04:30:03;98773.66;;;1.30;100.00
50123;BME280;36021;48.670;6.184;2023-02-26T04:32:31;98777.28;;;1.35;100.00
50123;BME280;36021;48.670;6.184;2023-02-26T04:34:57;98784.72;;;1.40;100.00
50123;BME280;36021;48.670;6.184;2023-02-26T04:37:23;98784.25;;;1.43;100.00
50123;BME280;36021;48.670;6.184;2023-02-26T04:39:48;98780.94;;;1.41;100.00
50123;BME280;36021;48.670;6.184;2023-02-26T04:42:17;98779.31;;;1.40;100.00
50123;BME280;36021;48.670;6.184;2023-02-26T04:44:44;98781.31;;;1.33;100.00
50123;BME280;36021;48.670;6.184;2023-02-26T04:47:11;98774.94;;;1.39;100.00
50123;BME280;36021;48.670;6.184;2023-02-26T04:49:37;98784.97;;;1.38;100.00
50123;BME280;36021;48.670;6.184;2023-02-26T04:52:03;98790.31;;;1.22;100.00
50123;BME280;36021;48.670;6.184;2023-02-26T04:54:29;98791.19;;;1.11;100.00
50123;BME280;36021;48.670;6.184;2023-02-26T04:56:55;98797.06;;;1.19;100.00
50123;BME280;36021;48.670;6.184;2023-02-26T04:59:21;98800.47;;;1.15;100.00
50123;BME280;36021;48.670;6.184;2023-02-26T05:01:47;98796.38;;;1.12;100.00
50123;BME280;36021;48.670;6.184;2023-02-26T05:04:14;98799.22;;;1.05;100.00
50123;BME280;36021;48.670;6.184;2023-02-26T05:06:42;98800.47;;;1.15;100.00
50123;BME280;36021;48.670;6.184;2023-02-26T05:09:08;98802.91;;;1.28;100.00
50123;BME280;36021;48.670;6.184;2023-02-26T05:11:33;98796.66;;;1.39;100.00
50123;BME280;36021;48.670;6.184;2023-02-26T05:13:59;98793.09;;;1.38;100.00
50123;BME280;36021;48.670;6.184;2023-02-26T05:16:24;98800.03;;;1.06;100.00
50123;BME280;36021;48.670;6.184;2023-02-26T05:18:50;98795.16;;;1.20;100.00
50123;BME280;36021;48.670;6.184;2023-02-26T05:21:17;98787.88;;;1.09;100.00
50123;BME280;36021;48.670;6.184;2023-02-26T05:23:42;98798.25;;;1.12;100.00
50123;BME280;36021;48.670;6.184;2023-02-26T05:26:08;98815.00;;;1.09;100.00
50123;BME280;36021;48.670;6.184;2023-02-26T05:28:33;98807.72;;;0.97;100.00
50123;BME280;36021;48.670;6.184;2023-02-26T05:31:00;98812.69;;;1.00;100.00
50123;BME280;36021;48.670;6.184;2023-02-26T05:33:27;98819.53;;;0.91;100.00
50123;BME280;36021;48.670;6.184;2023-02-26T05:35:54;98819.28;;;0.93;100.00
50123;BME280;36021;48.670;6.184;2023-02-26T05:38:19;98809.50;;;0.92;100.00
50123;BME280;36021;48.670;6.184;2023-02-26T05:40:45;98820.81;;;1.00;100.00
50123;BME280;36021;48.670;6.184;2023-02-26T05:43:12;98817.19;;;0.83;100.00
50123;BME280;36021;48.670;6.184;2023-02-26T05:45:40;98825.63;;;0.98;100.00
50123;BME280;36021;48.670;6.184;2023-02-26T05:48:05;98822.44;;;1.01;100.00
50123;BME280;36021;48.670;6.184;2023-02-26T05:50:31;98826.81;;;1.02;100.00
50123;BME280;36021;48.670;6.184;2023-02-26T05:52:57;98824.00;;;0.97;100.00
50123;BME280;36021;48.670;6.184;2023-02-26T05:55:23;98828.59;;;0.97;100.00
50123;BME280;36021;48.670;6.184;2023-02-26T05:57:49;98830.72;;;1.07;100.00
50123;BME280;36021;48.670;6.184;2023-02-26T06:00:14;98831.31;;;0.97;100.00
50123;BME280;36021;48.670;6.184;2023-02-26T06:02:40;98834.97;;;1.02;100.00
50123;BME280;36021;48.670;6.184;2023-02-26T06:05:08;98830.38;;;0.91;100.00
50123;BME280;36021;48.670;6.184;2023-02-26T06:07:34;98837.56;;;0.63;100.00
50123;BME280;36021;48.670;6.184;2023-02-26T06:09:59;98831.34;;;0.62;100.00
50123;BME280;36021;48.670;6.184;2023-02-26T06:12:25;98831.56;;;0.49;100.00
50123;BME280;36021;48.670;6.184;2023-02-26T06:14:51;98841.22;;;0.45;100.00
50123;BME280;36021;48.670;6.184;2023-02-26T06:17:16;98844.41;;;0.53;100.00
50123;BME280;36021;48.670;6.184;2023-02-26T06:19:42;98839.69;;;0.37;100.00
50123;BME280;36021;48.670;6.184;2023-02-26T06:22:08;98856.31;;;0.41;100.00
50123;BME280;36021;48.670;6.184;2023-02-26T06:24:33;98856.66;;;0.44;100.00
50123;BME280;36021;48.670;6.184;2023-02-26T06:26:59;98856.88;;;0.31;100.00
50123;BME280;36021;48.670;6.184;2023-02-26T06:29:24;98857.09;;;0.30;100.00
50123;BME280;36021;48.670;6.184;2023-02-26T06:31:50;98857.72;;;0.32;100.00
50123;BME280;36021;48.670;6.184;2023-02-26T06:34:17;98856.97;;;0.25;100.00
50123;BME280;36021;48.670;6.184;2023-02-26T06:36:43;98864.06;;;0.26;100.00
50123;BME280;36021;48.670;6.184;2023-02-26T06:39:08;98865.69;;;0.27;100.00
50123;BME280;36021;48.670;6.184;2023-02-26T06:41:37;98866.88;;;0.31;100.00
50123;BME280;36021;48.670;6.184;2023-02-26T06:44:03;98875.03;;;0.31;100.00
50123;BME280;36021;48.670;6.184;2023-02-26T06:46:29;98883.72;;;0.33;100.00
50123;BME280;36021;48.670;6.184;2023-02-26T06:48:55;98890.53;;;0.24;100.00
50123;BME280;36021;48.670;6.184;2023-02-26T06:51:20;98879.84;;;0.29;100.00
50123;BME280;36021;48.670;6.184;2023-02-26T06:53:46;98890.22;;;0.32;100.00
50123;BME280;36021;48.670;6.184;2023-02-26T06:56:12;98893.63;;;0.27;100.00
50123;BME280;36021;48.670;6.184;2023-02-26T06:58:38;98895.53;;;0.38;100.00
50123;BME280;36021;48.670;6.184;2023-02-26T07:01:04;98894.94;;;0.36;100.00
50123;BME280;36021;48.670;6.184;2023-02-26T07:03:32;98891.84;;;0.33;100.00
50123;BME280;36021;48.670;6.184;2023-02-26T07:05:57;98893.88;;;0.37;100.00
50123;BME280;36021;48.670;6.184;2023-02-26T07:08:23;98905.09;;;0.41;100.00
50123;BME280;36021;48.670;6.184;2023-02-26T07:10:49;98907.00;;;0.52;100.00
50123;BME280;36021;48.670;6.184;2023-02-26T07:13:15;98899.94;;;0.51;100.00
50123;BME280;36021;48.670;6.184;2023-02-26T07:15:40;98905.44;;;0.44;100.00
50123;BME280;36021;48.670;6.184;2023-02-26T07:18:06;98915.94;;;0.41;100.00
50123;BME280;36021;48.670;6.184;2023-02-26T07:20:32;98917.13;;;0.45;100.00
50123;BME280;36021;48.670;6.184;2023-02-26T07:22:58;98924.38;;;0.33;100.00
50123;BME280;36021;48.670;6.184;2023-02-26T07:25:24;98925.72;;;0.42;100.00
50123;BME280;36021;48.670;6.184;2023-02-26T07:27:50;98927.50;;;0.48;100.00
50123;BME280;36021;48.670;6.184;2023-02-26T07:30:15;98930.78;;;0.50;100.00
50123;BME280;36021;48.670;6.184;2023-02-26T07:32:42;98935.16;;;0.51;100.00
50123;BME280;36021;48.670;6.184;2023-02-26T07:35:09;98932.59;;;0.68;100.00
50123;BME280;36021;48.670;6.184;2023-02-26T07:37:34;98939.22;;;0.72;100.00
50123;BME280;36021;48.670;6.184;2023-02-26T07:40:00;98942.19;;;0.93;100.00
50123;BME280;36021;48.670;6.184;2023-02-26T07:42:27;98945.63;;;1.00;100.00
50123;BME280;36021;48.670;6.184;2023-02-26T07:44:53;98947.47;;;1.12;100.00
50123;BME280;36021;48.670;6.184;2023-02-26T07:47:18;98949.97;;;1.25;100.00
50123;BME280;36021;48.670;6.184;2023-02-26T07:49:44;98953.03;;;1.28;100.00
50123;BME280;36021;48.670;6.184;2023-02-26T07:52:09;98956.00;;;1.27;100.00
50123;BME280;36021;48.670;6.184;2023-02-26T07:54:35;98957.50;;;1.46;100.00
50123;BME280;36021;48.670;6.184;2023-02-26T07:57:02;98951.94;;;1.64;100.00
50123;BME280;36021;48.670;6.184;2023-02-26T07:59:28;98957.44;;;1.81;100.00
50123;BME280;36021;48.670;6.184;2023-02-26T08:01:53;98957.78;;;1.84;100.00
50123;BME280;36021;48.670;6.184;2023-02-26T08:04:21;98955.75;;;1.91;100.00
50123;BME280;36021;48.670;6.184;2023-02-26T08:06:47;98966.28;;;1.99;100.00
50123;BME280;36021;48.670;6.184;2023-02-26T08:09:12;98962.78;;;1.76;100.00
50123;BME280;36021;48.670;6.184;2023-02-26T08:11:38;98960.94;;;2.04;100.00
50123;BME280;36021;48.670;6.184;2023-02-26T08:14:08;98973.25;;;4.12;100.00
50123;BME280;36021;48.670;6.184;2023-02-26T08:16:33;98964.47;;;6.93;100.00
50123;BME280;36021;48.670;6.184;2023-02-26T08:18:59;98963.34;;;8.49;100.00
50123;BME280;36021;48.670;6.184;2023-02-26T08:21:25;98967.69;;;8.99;100.00
50123;BME280;36021;48.670;6.184;2023-02-26T08:23:50;98965.25;;;10.13;100.00
50123;BME280;36021;48.670;6.184;2023-02-26T08:26:17;98947.78;;;10.83;99.59
50123;BME280;36021;48.670;6.184;2023-02-26T08:28:42;98956.97;;;10.79;97.68
50123;BME280;36021;48.670;6.184;2023-02-26T08:31:08;98956.72;;;10.14;100.00
50123;BME280;36021;48.670;6.184;2023-02-26T08:33:33;98949.66;;;10.88;98.09
50123;BME280;36021;48.670;6.184;2023-02-26T08:36:00;98953.06;;;10.80;99.32
50123;BME280;36021;48.670;6.184;2023-02-26T08:38:26;98957.50;;;12.87;90.69
50123;BME280;36021;48.670;6.184;2023-02-26T08:40:53;98968.22;;;11.66;84.68
50123;BME280;36021;48.670;6.184;2023-02-26T08:43:19;98961.09;;;13.23;77.61
50123;BME280;36021;48.670;6.184;2023-02-26T08:45:46;98964.44;;;12.48;70.51
50123;BME280;36021;48.670;6.184;2023-02-26T08:48:12;98967.00;;;12.59;77.82
50123;BME280;36021;48.670;6.184;2023-02-26T08:50:38;98974.19;;;13.76;65.18
50123;BME280;36021;48.670;6.184;2023-02-26T08:53:04;98973.72;;;13.16;63.50
50123;BME280;36021;48.670;6.184;2023-02-26T08:55:31;98968.50;;;12.78;66.70
50123;BME280;36021;48.670;6.184;2023-02-26T08:57:57;98975.06;;;13.18;79.63
50123;BME280;36021;48.670;6.184;2023-02-26T09:00:22;98977.84;;;11.68;76.74
50123;BME280;36021;48.670;6.184;2023-02-26T09:02:48;98973.53;;;11.81;76.91
50123;BME280;36021;48.670;6.184;2023-02-26T09:05:14;98993.06;;;14.04;63.82
50123;BME280;36021;48.670;6.184;2023-02-26T09:07:40;98977.22;;;16.33;47.77
50123;BME280;36021;48.670;6.184;2023-02-26T09:10:06;98975.94;;;15.76;41.72
50123;BME280;36021;48.670;6.184;2023-02-26T09:12:31;98972.66;;;14.00;48.01
50123;BME280;36021;48.670;6.184;2023-02-26T09:14:57;98980.22;;;15.13;46.45
50123;BME280;36021;48.670;6.184;2023-02-26T09:17:26;98982.28;;;12.92;54.08
50123;BME280;36021;48.670;6.184;2023-02-26T09:19:52;98997.47;;;11.99;61.89
50123;BME280;36021;48.670;6.184;2023-02-26T09:22:18;99005.16;;;10.63;71.04
50123;BME280;36021;48.670;6.184;2023-02-26T09:24:43;99009.84;;;9.86;79.52
50123;BME280;36021;48.670;6.184;2023-02-26T09:27:09;99009.38;;;8.67;97.36
50123;BME280;36021;48.670;6.184;2023-02-26T09:29:34;99017.03;;;8.75;100.00
50123;BME280;36021;48.670;6.184;2023-02-26T09:32:00;99036.00;;;7.88;100.00
50123;BME280;36021;48.670;6.184;2023-02-26T09:34:27;99039.00;;;7.20;100.00
50123;BME280;36021;48.670;6.184;2023-02-26T09:36:52;99033.50;;;7.10;100.00
50123;BME280;36021;48.670;6.184;2023-02-26T09:39:18;99034.13;;;7.32;100.00
50123;BME280;36021;48.670;6.184;2023-02-26T09:41:46;99032.91;;;6.73;100.00
50123;BME280;36021;48.670;6.184;2023-02-26T09:44:15;99029.06;;;6.69;100.00
50123;BME280;36021;48.670;6.184;2023-02-26T09:46:50;99038.59;;;6.61;100.00
50123;BME280;36021;48.670;6.184;2023-02-26T09:49:19;99028.81;;;6.86;100.00
50123;BME280;36021;48.670;6.184;2023-02-26T09:51:47;99031.03;;;6.84;100.00
50123;BME280;36021;48.670;6.184;2023-02-26T09:54:21;99034.00;;;6.67;100.00
50123;BME280;36021;48.670;6.184;2023-02-26T09:56:50;99029.06;;;6.64;100.00
50123;BME280;36021;48.670;6.184;2023-02-26T09:59:17;99033.97;;;6.62;100.00
50123;BME280;36021;48.670;6.184;2023-02-26T10:14:14;99038.31;;;8.50;87.98
50123;BME280;36021;48.670;6.184;2023-02-26T10:16:41;99037.34;;;8.79;87.60
50123;BME280;36021;48.670;6.184;2023-02-26T10:19:16;99037.50;;;10.76;72.99
50123;BME280;36021;48.670;6.184;2023-02-26T10:21:44;99041.47;;;8.77;79.65
50123;BME280;36021;48.670;6.184;2023-02-26T10:24:17;99043.34;;;8.17;83.30
50123;BME280;36021;48.670;6.184;2023-02-26T10:26:52;99048.06;;;7.56;100.00
50123;BME280;36021;48.670;6.184;2023-02-26T10:29:33;99043.91;;;8.14;98.33
50123;BME280;36021;48.670;6.184;2023-02-26T10:34:30;99028.66;;;11.16;76.91
50123;BME280;36021;48.670;6.184;2023-02-26T10:39:47;99041.84;;;12.62;49.29
50123;BME280;36021;48.670;6.184;2023-02-26T10:42:12;99042.47;;;9.69;59.20
50123;BME280;36021;48.670;6.184;2023-02-26T10:44:43;99041.81;;;9.82;64.78
50123;BME280;36021;48.670;6.184;2023-02-26T10:49:58;99045.78;;;8.19;81.47
50123;BME280;36021;48.670;6.184;2023-02-26T10:52:27;99048.84;;;10.27;76.44
50123;BME280;36021;48.670;6.184;2023-02-26T10:57:22;99037.56;;;14.61;43.78
50123;BME280;36021;48.670;6.184;2023-02-26T10:59:49;99025.69;;;16.32;39.95
50123;BME280;36021;48.670;6.184;2023-02-26T11:02:24;99009.72;;;17.58;35.11
50123;BME280;36021;48.670;6.184;2023-02-26T11:04:52;99023.06;;;14.02;37.55
50123;BME280;36021;48.670;6.184;2023-02-26T11:07:18;99048.28;;;12.85;41.32
50123;BME280;36021;48.670;6.184;2023-02-26T11:09:44;99039.81;;;11.43;49.17
50123;BME280;36021;48.670;6.184;2023-02-26T11:14:35;99047.59;;;11.92;69.64
50123;BME280;36021;48.670;6.184;2023-02-26T11:17:03;99037.56;;;13.05;48.61
50123;BME280;36021;48.670;6.184;2023-02-26T11:19:31;99043.50;;;10.59;57.28
50123;BME280;36021;48.670;6.184;2023-02-26T11:21:58;99066.63;;;9.77;70.54
50123;BME280;36021;48.670;6.184;2023-02-26T11:24:34;99070.78;;;8.38;77.01
50123;BME280;36021;48.670;6.184;2023-02-26T11:27:02;99069.72;;;7.93;88.92
50123;BME280;36021;48.670;6.184;2023-02-26T11:29:32;99075.50;;;7.46;93.27
50123;BME280;36021;48.670;6.184;2023-02-26T11:31:59;99076.88;;;7.54;93.29
50123;BME280;36021;48.670;6.184;2023-02-26T11:34:27;99059.66;;;11.08;67.52
50123;BME280;36021;48.670;6.184;2023-02-26T11:36:54;99056.69;;;12.52;49.18
50123;BME280;36021;48.670;6.184;2023-02-26T11:39:24;99041.31;;;11.17;55.89
50123;BME280;36021;48.670;6.184;2023-02-26T11:41:52;99026.38;;;11.56;55.68
50123;BME280;36021;48.670;6.184;2023-02-26T11:44:20;99044.97;;;9.99;60.77
50123;BME280;36021;48.670;6.184;2023-02-26T11:46:58;99035.34;;;8.95;70.43
50123;BME280;36021;48.670;6.184;2023-02-26T11:49:27;99047.94;;;8.47;80.85
50123;BME280;36021;48.670;6.184;2023-02-26T11:52:15;99054.38;;;7.87;83.68
50123;BME280;36021;48.670;6.184;2023-02-26T11:54:41;99073.03;;;7.29;93.46
50123;BME280;36021;48.670;6.184;2023-02-26T11:57:15;99060.13;;;7.30;100.00
50123;BME280;36021;48.670;6.184;2023-02-26T11:59:42;99063.97;;;7.24;99.91
50123;BME280;36021;48.670;6.184;2023-02-26T12:02:11;99057.38;;;7.96;100.00
50123;BME280;36021;48.670;6.184;2023-02-26T12:04:38;99058.22;;;7.51;100.00
50123;BME280;36021;48.670;6.184;2023-02-26T12:07:04;99072.94;;;6.94;100.00
50123;BME280;36021;48.670;6.184;2023-02-26T12:09:29;99074.00;;;6.78;100.00
50123;BME280;36021;48.670;6.184;2023-02-26T12:19:39;99075.63;;;5.75;100.00
50123;BME280;36021;48.670;6.184;2023-02-26T12:22:12;99074.72;;;6.01;100.00
50123;BME280;36021;48.670;6.184;2023-02-26T12:37:45;99077.00;;;5.83;100.00
50123;BME280;36021;48.670;6.184;2023-02-26T12:43:05;99088.25;;;5.49;100.00
50123;BME280;36021;48.670;6.184;2023-02-26T12:51:06;99080.53;;;5.14;100.00
50123;BME280;36021;48.670;6.184;2023-02-26T13:01:37;99094.97;;;4.61;100.00
50123;BME280;36021;48.670;6.184;2023-02-26T13:06:54;99083.94;;;4.73;100.00
50123;BME280;36021;48.670;6.184;2023-02-26T13:09:33;99088.47;;;4.89;100.00
50123;BME280;36021;48.670;6.184;2023-02-26T13:12:10;99088.25;;;4.69;100.00
50123;BME280;36021;48.670;6.184;2023-02-26T13:17:08;99091.44;;;4.88;100.00
50123;BME280;36021;48.670;6.184;2023-02-26T13:19:48;99096.63;;;4.84;100.00
50123;BME280;36021;48.670;6.184;2023-02-26T13:22:19;99097.94;;;4.82;100.00
50123;BME280;36021;48.670;6.184;2023-02-26T13:24:47;99103.28;;;4.93;100.00
50123;BME280;36021;48.670;6.184;2023-02-26T13:27:14;99101.28;;;5.10;100.00
50123;BME280;36021;48.670;6.184;2023-02-26T13:29:42;99110.66;;;5.19;100.00
50123;BME280;36021;48.670;6.184;2023-02-26T13:32:13;99100.63;;;5.30;100.00
50123;BME280;36021;48.670;6.184;2023-02-26T13:34:42;99099.34;;;5.69;100.00
50123;BME280;36021;48.670;6.184;2023-02-26T13:37:30;99110.00;;;5.66;100.00
50123;BME280;36021;48.670;6.184;2023-02-26T13:40:04;99099.28;;;5.59;100.00
50123;BME280;36021;48.670;6.184;2023-02-26T13:47:58;99088.56;;;6.26;100.00
50123;BME280;36021;48.670;6.184;2023-02-26T13:53:04;99094.88;;;7.04;100.00
50123;BME280;36021;48.670;6.184;2023-02-26T13:55:37;99087.25;;;7.16;100.00
50123;BME280;36021;48.670;6.184;2023-02-26T14:08:48;99116.47;;;5.60;100.00
50123;BME280;36021;48.670;6.184;2023-02-26T14:14:17;99111.34;;;5.37;100.00
50123;BME280;36021;48.670;6.184;2023-02-26T14:16:45;99115.19;;;5.36;100.00
50123;BME280;36021;48.670;6.184;2023-02-26T14:24:24;99120.16;;;4.68;100.00
50123;BME280;36021;48.670;6.184;2023-02-26T14:29:39;99141.25;;;4.51;100.00
50123;BME280;36021;48.670;6.184;2023-02-26T14:34:35;99130.72;;;4.38;100.00
50123;BME280;36021;48.670;6.184;2023-02-26T14:37:07;99134.97;;;4.51;100.00
50123;BME280;36021;48.670;6.184;2023-02-26T14:42:07;99129.38;;;4.41;100.00
50123;BME280;36021;48.670;6.184;2023-02-26T14:44:42;99136.41;;;4.37;100.00
50123;BME280;36021;48.670;6.184;2023-02-26T14:47:11;99133.25;;;4.45;100.00
50123;BME280;36021;48.670;6.184;2023-02-26T14:49:40;99135.34;;;4.38;100.00
50123;BME280;36021;48.670;6.184;2023-02-26T14:52:33;99139.13;;;4.37;100.00
50123;BME280;36021;48.670;6.184;2023-02-26T14:55:19;99138.63;;;4.40;100.00
50123;BME280;36021;48.670;6.184;2023-02-26T14:57:58;99133.50;;;4.43;100.00
50123;BME280;36021;48.670;6.184;2023-02-26T15:00:29;99138.94;;;4.43;100.00
50123;BME280;36021;48.670;6.184;2023-02-26T15:08:18;99134.97;;;4.51;100.00
50123;BME280;36021;48.670;6.184;2023-02-26T15:13:27;99156.97;;;4.44;100.00
50123;BME280;36021;48.670;6.184;2023-02-26T15:16:02;99155.81;;;4.40;100.00
50123;BME280;36021;48.670;6.184;2023-02-26T15:21:18;99151.91;;;4.53;100.00
50123;BME280;36021;48.670;6.184;2023-02-26T15:23:51;99150.38;;;4.40;100.00
50123;BME280;36021;48.670;6.184;2023-02-26T15:26:30;99160.53;;;4.45;100.00
50123;BME280;36021;48.670;6.184;2023-02-26T15:28:57;99162.78;;;4.31;100.00
50123;BME280;36021;48.670;6.184;2023-02-26T15:31:30;99160.56;;;4.28;100.00
50123;BME280;36021;48.670;6.184;2023-02-26T15:33:56;99165.53;;;4.14;100.00
50123;BME280;36021;48.670;6.184;2023-02-26T15:36:24;99172.00;;;4.08;100.00
50123;BME280;36021;48.670;6.184;2023-02-26T15:38:56;99164.16;;;4.12;100.00